createdAt,value
2018-07-21T00:01:07.418Z,20.40
2018-07-21T00:03:36.065Z,20.30
2018-07-21T00:06:04.808Z,20.30
2018-07-21T00:08:33.358Z,20.30
2018-07-21T00:11:02.059Z,20.40
2018-07-21T00:13:30.662Z,20.30
2018-07-21T00:15:59.407Z,20.10
2018-07-21T00:18:28.238Z,20.20
2018-07-21T00:20:56.776Z,20.20
2018-07-21T00:23:25.319Z,20.20
2018-07-21T00:25:54.372Z,20.30
2018-07-21T00:28:22.880Z,20.20
2018-07-21T00:30:51.477Z,20.10
2018-07-21T00:35:48.357Z,20.00
2018-07-21T00:38:16.862Z,20.00
2018-07-21T00:40:45.415Z,20.10
2018-07-21T00:43:13.915Z,20.00
2018-07-21T00:45:42.557Z,20.10
2018-07-21T00:48:11.117Z,20.10
2018-07-21T00:50:39.595Z,20.10
2018-07-21T00:53:08.197Z,20.10
2018-07-21T00:55:36.816Z,20.10
2018-07-21T00:58:05.751Z,20.00
2018-07-21T01:00:34.308Z,16.70
2018-07-21T01:03:02.846Z,19.80
2018-07-21T01:05:31.348Z,19.60
2018-07-21T01:08:00.084Z,19.50
2018-07-21T01:10:28.638Z,19.30
2018-07-21T01:12:57.198Z,19.20
2018-07-21T01:15:25.759Z,19.20
2018-07-21T01:17:54.594Z,19.20
2018-07-21T01:20:23.647Z,19.20
2018-07-21T01:22:52.154Z,19.30
2018-07-21T01:25:20.720Z,19.30
2018-07-21T01:27:49.243Z,19.30
2018-07-21T01:30:17.797Z,19.30
2018-07-21T01:32:46.346Z,19.20
2018-07-21T01:35:14.883Z,19.20
2018-07-21T01:37:43.884Z,19.20
2018-07-21T01:40:12.500Z,19.10
2018-07-21T01:42:41.121Z,19.20
2018-07-21T01:45:09.685Z,19.00
2018-07-21T01:47:38.172Z,18.90
2018-07-21T01:50:06.792Z,18.90
2018-07-21T01:52:35.290Z,18.90
2018-07-21T01:57:31.996Z,18.90
2018-07-21T02:00:00.465Z,18.90
2018-07-21T02:02:29.170Z,18.80
2018-07-21T02:04:57.784Z,18.80
2018-07-21T02:07:26.505Z,18.80
2018-07-21T02:09:55.010Z,18.70
2018-07-21T02:12:23.542Z,18.70
2018-07-21T02:17:20.427Z,18.60
2018-07-21T02:19:49.203Z,18.60
2018-07-21T02:22:18.139Z,18.70
2018-07-21T02:24:46.965Z,18.40
2018-07-21T02:27:15.586Z,18.40
2018-07-21T02:29:44.076Z,18.40
2018-07-21T02:32:12.747Z,18.40
2018-07-21T02:34:42.090Z,18.50
2018-07-21T02:37:10.837Z,18.50
2018-07-21T02:39:39.520Z,18.50
2018-07-21T02:42:08.062Z,18.50
2018-07-21T02:44:36.608Z,18.60
2018-07-21T02:47:05.350Z,18.60
2018-07-21T02:49:33.853Z,18.70
2018-07-21T02:52:02.367Z,18.50
2018-07-21T02:54:30.898Z,18.40
2018-07-21T02:56:59.452Z,18.30
2018-07-21T02:59:28.312Z,18.40
2018-07-21T03:01:56.855Z,18.50
2018-07-21T03:04:25.610Z,18.50
2018-07-21T03:06:54.142Z,18.70
2018-07-21T03:09:22.651Z,18.70
2018-07-21T03:11:51.292Z,18.60
2018-07-21T03:14:20.264Z,18.50
2018-07-21T03:16:48.886Z,18.50
2018-07-21T03:19:17.402Z,18.40
2018-07-21T03:21:45.967Z,18.30
2018-07-21T03:24:14.707Z,18.20
2018-07-21T03:26:43.218Z,18.20
2018-07-21T03:29:11.840Z,18.10
2018-07-21T03:31:40.354Z,18.10
2018-07-21T03:34:08.903Z,18.10
2018-07-21T03:36:37.486Z,18.10
2018-07-21T03:39:09.359Z,18.10
2018-07-21T03:41:38.194Z,18.00
2018-07-21T03:44:06.824Z,18.00
2018-07-21T03:46:35.739Z,18.10
2018-07-21T03:49:04.305Z,18.10
2018-07-21T03:51:32.911Z,18.20
2018-07-21T03:54:01.406Z,18.20
2018-07-21T03:56:30.012Z,18.20
2018-07-21T03:58:58.575Z,18.20
2018-07-21T04:01:27.043Z,18.20
2018-07-21T04:03:55.621Z,18.30
2018-07-21T04:06:24.283Z,18.10
2018-07-21T04:08:52.863Z,18.10
2018-07-21T04:11:21.364Z,18.10
2018-07-21T04:13:50.047Z,18.20
2018-07-21T04:16:19.028Z,18.30
2018-07-21T04:18:47.902Z,18.40
2018-07-21T04:21:16.492Z,18.50
2018-07-21T04:23:45.032Z,18.60
2018-07-21T04:26:13.548Z,18.60
2018-07-21T04:28:42.059Z,18.50
2018-07-21T04:31:11.020Z,18.40
2018-07-21T04:33:39.526Z,18.40
2018-07-21T04:36:08.043Z,18.40
2018-07-21T04:38:36.510Z,18.40
2018-07-21T04:41:05.128Z,18.40
2018-07-21T04:43:33.856Z,18.60
2018-07-21T04:46:02.351Z,18.70
2018-07-21T04:48:30.912Z,18.80
2018-07-21T04:50:59.627Z,19.00
2018-07-21T04:55:56.309Z,19.20
2018-07-21T04:58:24.835Z,19.40
2018-07-21T05:00:53.315Z,19.30
2018-07-21T05:03:22.379Z,19.40
2018-07-21T05:05:50.855Z,19.60
2018-07-21T05:08:19.387Z,19.60
2018-07-21T05:10:48.088Z,19.60
2018-07-21T05:13:16.696Z,19.50
2018-07-21T05:15:45.303Z,19.40
2018-07-21T05:18:14.024Z,19.30
2018-07-21T05:20:42.843Z,19.30
2018-07-21T05:23:11.375Z,19.30
2018-07-21T05:25:39.868Z,19.40
2018-07-21T05:28:08.374Z,19.40
2018-07-21T05:30:36.945Z,19.50
2018-07-21T05:33:05.783Z,19.60
2018-07-21T05:35:34.471Z,19.80
2018-07-21T05:38:03.088Z,20.00
2018-07-21T05:40:31.873Z,20.00
2018-07-21T05:43:00.483Z,20.10
2018-07-21T05:47:57.444Z,20.10
2018-07-21T05:50:25.932Z,20.10
2018-07-21T05:55:23.078Z,20.20
2018-07-21T05:57:55.192Z,20.30
2018-07-21T06:00:23.904Z,20.00
2018-07-21T06:02:52.457Z,19.90
2018-07-21T06:05:21.083Z,19.70
2018-07-21T06:07:50.063Z,19.70
2018-07-21T06:10:18.643Z,19.70
2018-07-21T06:12:47.423Z,19.60
2018-07-21T06:15:15.907Z,19.70
2018-07-21T06:17:44.425Z,19.80
2018-07-21T06:20:13.141Z,19.80
2018-07-21T06:22:41.742Z,19.90
2018-07-21T06:25:10.472Z,20.00
2018-07-21T06:27:39.022Z,20.10
2018-07-21T06:30:07.945Z,20.20
2018-07-21T06:32:36.465Z,20.30
2018-07-21T06:35:05.003Z,20.70
2018-07-21T06:37:33.647Z,20.90
2018-07-21T06:40:02.702Z,21.10
2018-07-21T06:42:31.332Z,21.40
2018-07-21T06:45:00.171Z,21.60
2018-07-21T06:47:28.816Z,21.50
2018-07-21T06:49:57.382Z,21.60
2018-07-21T06:52:26.308Z,21.80
2018-07-21T06:54:54.884Z,21.90
2018-07-21T06:57:23.439Z,22.10
2018-07-21T06:59:52.025Z,22.20
2018-07-21T07:02:20.684Z,22.30
2018-07-21T07:04:49.392Z,22.40
2018-07-21T07:07:18.221Z,22.70
2018-07-21T07:09:47.027Z,22.80
2018-07-21T07:12:15.606Z,22.80
2018-07-21T07:14:44.808Z,22.80
2018-07-21T07:17:13.954Z,22.70
2018-07-21T07:19:42.733Z,23.00
2018-07-21T07:22:11.527Z,23.20
2018-07-21T07:24:40.363Z,23.30
2018-07-21T07:27:08.844Z,23.30
2018-07-21T07:32:06.355Z,23.50
2018-07-21T07:34:34.863Z,23.50
2018-07-21T07:37:03.399Z,23.60
2018-07-21T07:39:32.218Z,23.60
2018-07-21T07:42:00.758Z,23.90
2018-07-21T07:44:29.217Z,24.00
2018-07-21T07:46:57.688Z,24.10
2018-07-21T07:49:26.590Z,24.30
2018-07-21T07:51:55.552Z,24.30
2018-07-21T07:54:24.090Z,24.60
2018-07-21T07:56:52.952Z,24.70
2018-07-21T07:59:21.704Z,25.00
2018-07-21T08:01:52.524Z,25.10
2018-07-21T08:04:21.387Z,25.20
2018-07-21T08:06:50.105Z,24.90
2018-07-21T08:09:18.680Z,24.70
2018-07-21T08:11:47.523Z,24.50
2018-07-21T08:14:16.124Z,24.30
2018-07-21T08:16:44.602Z,24.40
2018-07-21T08:19:13.095Z,24.50
2018-07-21T08:21:41.616Z,24.60
2018-07-21T08:24:10.482Z,24.70
2018-07-21T08:31:35.820Z,24.40
2018-07-21T08:34:04.505Z,24.50
2018-07-21T08:36:33.950Z,24.60
2018-07-21T08:39:02.828Z,24.90
2018-07-21T08:41:31.435Z,24.80
2018-07-21T08:44:00.051Z,25.00
2018-07-21T08:46:28.599Z,25.20
2018-07-21T08:48:57.183Z,25.00
2018-07-21T08:51:25.648Z,25.00
2018-07-21T08:53:54.368Z,25.10
2018-07-21T08:56:23.007Z,25.20
2018-07-21T08:58:51.699Z,25.10
2018-07-21T09:01:20.422Z,25.40
2018-07-21T09:03:48.971Z,25.50
2018-07-21T09:06:17.491Z,25.90
2018-07-21T09:08:46.399Z,25.70
2018-07-21T09:11:14.951Z,25.90
2018-07-21T09:13:43.751Z,26.20
2018-07-21T09:16:13.119Z,26.00
2018-07-21T09:18:41.964Z,26.40
2018-07-21T09:21:10.720Z,26.40
2018-07-21T09:23:39.203Z,26.50
2018-07-21T09:26:08.066Z,26.80
2018-07-21T09:28:37.046Z,26.90
2018-07-21T09:31:05.833Z,27.00
2018-07-21T09:33:34.787Z,27.10
2018-07-21T09:36:03.289Z,27.10
2018-07-21T09:41:00.439Z,27.20
2018-07-21T09:43:28.951Z,27.30
2018-07-21T09:45:57.464Z,27.40
2018-07-21T09:48:26.232Z,27.20
2018-07-21T09:50:54.779Z,27.20
2018-07-21T09:53:23.351Z,27.40
2018-07-21T09:55:52.104Z,27.80
2018-07-21T09:58:20.763Z,27.60
2018-07-21T10:00:54.719Z,27.90
2018-07-21T10:03:23.447Z,27.80
2018-07-21T10:05:52.172Z,27.50
2018-07-21T10:08:20.712Z,27.20
2018-07-21T10:10:49.407Z,27.10
2018-07-21T10:13:18.197Z,27.10
2018-07-21T10:15:46.847Z,27.20
2018-07-21T10:18:15.401Z,27.30
2018-07-21T10:20:44.440Z,27.30
2018-07-21T10:23:12.977Z,27.30
2018-07-21T10:25:46.746Z,27.10
2018-07-21T10:28:20.681Z,27.10
2018-07-21T10:30:49.311Z,27.30
2018-07-21T10:33:18.162Z,27.60
2018-07-21T10:35:46.987Z,27.70
2018-07-21T10:38:15.707Z,28.10
2018-07-21T10:40:44.260Z,28.30
2018-07-21T10:43:13.076Z,28.30
2018-07-21T10:45:41.813Z,28.50
2018-07-21T10:48:10.579Z,28.00
2018-07-21T10:50:39.160Z,27.60
2018-07-21T10:53:07.757Z,27.40
2018-07-21T10:55:36.303Z,27.60
2018-07-21T10:58:05.088Z,27.70
2018-07-21T11:00:33.772Z,27.50
2018-07-21T11:03:02.426Z,27.50
2018-07-21T11:05:31.132Z,27.50
2018-07-21T11:07:59.974Z,27.40
2018-07-21T11:10:33.072Z,27.70
2018-07-21T11:13:02.620Z,27.40
2018-07-21T11:15:31.136Z,27.10
2018-07-21T11:17:59.907Z,26.80
2018-07-21T11:20:28.585Z,26.80
2018-07-21T11:22:57.371Z,26.60
2018-07-21T11:25:25.964Z,26.50
2018-07-21T11:27:54.724Z,26.20
2018-07-21T11:32:51.851Z,25.80
2018-07-21T11:35:20.564Z,25.80
2018-07-21T11:37:48.973Z,25.70
2018-07-21T11:40:17.540Z,25.50
2018-07-21T11:42:46.178Z,25.50
2018-07-21T11:45:14.659Z,25.30
2018-07-21T11:47:43.193Z,25.50
2018-07-21T11:50:11.720Z,25.20
2018-07-21T11:52:40.444Z,25.30
2018-07-21T11:55:09.144Z,25.20
2018-07-21T11:57:37.715Z,25.10
2018-07-21T12:00:06.792Z,25.30
2018-07-21T12:02:35.321Z,25.40
2018-07-21T12:05:04.069Z,25.30
2018-07-21T12:07:32.979Z,25.50
2018-07-21T12:10:01.625Z,25.50
2018-07-21T12:12:30.221Z,25.60
2018-07-21T12:14:58.763Z,25.60
2018-07-21T12:17:27.502Z,25.50
2018-07-21T12:22:24.510Z,25.40
2018-07-21T12:24:53.040Z,25.40
2018-07-21T12:27:21.653Z,25.40
2018-07-21T12:29:50.572Z,25.50
2018-07-21T12:32:19.287Z,25.50
2018-07-21T12:34:48.124Z,25.40
2018-07-21T12:37:16.851Z,25.30
2018-07-21T12:39:45.446Z,25.50
2018-07-21T12:42:14.022Z,25.50
2018-07-21T12:44:42.887Z,25.20
2018-07-21T12:47:11.661Z,25.10
2018-07-21T12:49:40.284Z,25.10
2018-07-21T12:52:08.971Z,24.80
2018-07-21T12:54:37.669Z,24.70
2018-07-21T12:57:06.472Z,24.90
2018-07-21T13:02:03.621Z,24.80
2018-07-21T13:04:32.280Z,24.60
2018-07-21T13:07:00.794Z,24.60
2018-07-21T13:09:29.331Z,24.70
2018-07-21T13:11:57.902Z,24.80
2018-07-21T13:14:26.388Z,24.90
2018-07-21T13:16:54.991Z,24.80
2018-07-21T13:19:23.498Z,24.80
2018-07-21T13:21:52.415Z,25.00
2018-07-21T13:24:21.023Z,25.00
2018-07-21T13:26:49.539Z,24.90
2018-07-21T13:29:18.357Z,24.90
2018-07-21T13:31:47.043Z,25.10
2018-07-21T13:34:15.948Z,25.20
2018-07-21T13:36:44.549Z,25.10
2018-07-21T13:39:13.211Z,25.40
2018-07-21T13:41:41.801Z,25.30
2018-07-21T13:44:10.485Z,25.50
2018-07-21T13:46:39.261Z,25.40
2018-07-21T13:49:07.904Z,25.60
2018-07-21T13:51:36.494Z,25.50
2018-07-21T13:54:05.312Z,25.50
2018-07-21T13:59:02.726Z,25.80
2018-07-21T14:01:31.486Z,26.00
2018-07-21T14:04:00.024Z,26.20
2018-07-21T14:06:28.530Z,26.30
2018-07-21T14:08:57.152Z,26.30
2018-07-21T14:11:25.810Z,26.40
2018-07-21T14:13:54.579Z,26.30
2018-07-21T14:16:23.112Z,26.40
2018-07-21T14:18:51.907Z,26.40
2018-07-21T14:21:20.453Z,26.40
2018-07-21T14:26:17.472Z,26.60
2018-07-21T14:28:46.107Z,26.50
2018-07-21T14:31:14.875Z,26.40
2018-07-21T14:33:43.421Z,26.30
2018-07-21T14:36:12.311Z,26.30
2018-07-21T14:38:40.715Z,26.20
2018-07-21T14:41:09.622Z,26.10
2018-07-21T14:46:06.709Z,26.00
2018-07-21T14:48:35.305Z,26.00
2018-07-21T14:51:03.944Z,26.10
2018-07-21T14:53:32.541Z,26.20
2018-07-21T14:56:01.237Z,26.40
2018-07-21T14:58:30.239Z,26.70
2018-07-21T15:00:58.747Z,26.90
2018-07-21T15:03:27.420Z,27.20
2018-07-21T15:05:56.126Z,27.40
2018-07-21T15:08:24.948Z,27.60
2018-07-21T15:10:53.504Z,27.60
2018-07-21T15:13:22.083Z,27.50
2018-07-21T15:15:50.623Z,27.30
2018-07-21T15:18:19.451Z,27.20
2018-07-21T15:20:48.227Z,27.20
2018-07-21T15:23:16.991Z,26.80
2018-07-21T15:25:45.659Z,26.70
2018-07-21T15:30:42.592Z,26.60
2018-07-21T15:33:11.444Z,26.60
2018-07-21T15:35:40.211Z,26.60
2018-07-21T15:38:09.908Z,26.50
2018-07-21T15:40:38.625Z,26.20
2018-07-21T15:43:07.448Z,26.00
2018-07-21T15:45:36.405Z,25.80
2018-07-21T15:48:04.980Z,25.90
2018-07-21T15:50:33.503Z,25.70
2018-07-21T15:53:02.235Z,25.70
2018-07-21T15:55:30.750Z,25.60
2018-07-21T15:57:59.297Z,25.70
2018-07-21T16:00:28.212Z,25.70
2018-07-21T16:02:56.922Z,25.70
2018-07-21T16:05:26.221Z,25.70
2018-07-21T16:07:59.812Z,25.60
2018-07-21T16:10:28.485Z,25.60
2018-07-21T16:12:57.219Z,25.50
2018-07-21T16:15:26.165Z,25.20
2018-07-21T16:17:54.841Z,25.10
2018-07-21T16:20:23.654Z,25.10
2018-07-21T16:22:52.368Z,25.10
2018-07-21T16:25:21.007Z,25.10
2018-07-21T16:27:49.826Z,25.10
2018-07-21T16:30:18.493Z,25.20
2018-07-21T16:32:47.104Z,25.10
2018-07-21T16:35:15.857Z,25.00
2018-07-21T16:37:44.543Z,25.00
2018-07-21T16:40:13.548Z,24.90
2018-07-21T16:42:42.731Z,24.90
2018-07-21T16:45:11.718Z,24.90
2018-07-21T16:47:40.942Z,24.60
2018-07-21T16:50:09.839Z,24.50
2018-07-21T16:52:38.648Z,24.40
2018-07-21T16:55:07.500Z,24.50
2018-07-21T16:57:36.217Z,24.40
2018-07-21T17:00:05.204Z,24.10
2018-07-21T17:02:34.475Z,24.00
2018-07-21T17:05:03.478Z,24.00
2018-07-21T17:07:32.117Z,24.10
2018-07-21T17:10:00.694Z,24.10
2018-07-21T17:12:29.447Z,24.10
2018-07-21T17:14:58.142Z,24.10
2018-07-21T17:17:26.873Z,24.10
2018-07-21T17:19:55.491Z,24.10
2018-07-21T17:22:24.434Z,24.00
2018-07-21T17:24:53.177Z,24.00
2018-07-21T17:27:22.056Z,23.80
2018-07-21T17:29:50.870Z,23.90
2018-07-21T17:32:19.642Z,23.80
2018-07-21T17:34:48.501Z,23.80
2018-07-21T17:37:17.520Z,23.90
2018-07-21T17:39:46.186Z,23.80
2018-07-21T17:42:15.243Z,23.70
2018-07-21T17:44:44.517Z,23.70
2018-07-21T17:47:13.232Z,23.60
2018-07-21T17:52:10.476Z,23.50
2018-07-21T17:54:38.992Z,23.50
2018-07-21T17:57:08.017Z,23.30
2018-07-21T17:59:36.855Z,23.30
2018-07-21T18:02:05.924Z,23.30
2018-07-21T18:04:34.465Z,23.20
2018-07-21T18:07:03.317Z,23.10
2018-07-21T18:09:32.138Z,23.00
2018-07-21T18:14:29.292Z,22.90
2018-07-21T18:16:57.928Z,22.90
2018-07-21T18:19:26.649Z,22.90
2018-07-21T18:21:55.294Z,22.80
2018-07-21T18:24:24.162Z,22.60
2018-07-21T18:26:52.747Z,22.60
2018-07-21T18:29:21.800Z,22.60
2018-07-21T18:31:50.626Z,22.40
2018-07-21T18:34:19.590Z,22.40
2018-07-21T18:36:48.405Z,22.30
2018-07-21T18:39:17.164Z,22.30
2018-07-21T18:41:45.983Z,22.30
2018-07-21T18:44:14.781Z,22.30
2018-07-21T18:46:43.304Z,22.30
2018-07-21T18:49:12.380Z,22.40
2018-07-21T18:51:40.975Z,22.40
2018-07-21T18:54:09.526Z,22.40
2018-07-21T18:56:38.179Z,22.40
2018-07-21T18:59:07.061Z,22.20
2018-07-21T19:01:35.880Z,22.20
2018-07-21T19:04:04.800Z,22.00
2018-07-21T19:06:33.545Z,21.90
2018-07-21T19:09:04.288Z,21.80
2018-07-21T19:11:33.035Z,21.80
2018-07-21T19:14:01.694Z,21.70
2018-07-21T19:16:35.532Z,21.70
2018-07-21T19:19:04.081Z,21.60
2018-07-21T19:21:32.887Z,21.60
2018-07-21T19:24:01.841Z,21.70
2018-07-21T19:26:35.728Z,21.60
2018-07-21T19:31:32.809Z,21.40
2018-07-21T19:34:01.644Z,21.30
2018-07-21T19:36:30.459Z,21.20
2018-07-21T19:38:59.073Z,21.10
2018-07-21T19:41:33.389Z,21.10
2018-07-21T19:44:02.220Z,21.10
2018-07-21T19:46:30.836Z,21.00
2018-07-21T19:48:59.654Z,21.00
2018-07-21T19:51:28.327Z,21.00
2018-07-21T19:53:56.946Z,20.90
2018-07-21T19:56:26.014Z,20.80
2018-07-21T19:58:54.771Z,20.90
2018-07-21T20:01:23.599Z,20.90
2018-07-21T20:03:52.446Z,21.00
2018-07-21T20:06:21.078Z,21.00
2018-07-21T20:08:50.360Z,20.80
2018-07-21T20:11:19.046Z,20.80
2018-07-21T20:13:47.635Z,20.70
2018-07-21T20:16:16.179Z,20.70
2018-07-21T20:18:44.900Z,20.70
2018-07-21T20:21:13.753Z,20.80
2018-07-21T20:23:42.966Z,20.70
2018-07-21T20:26:11.539Z,20.80
2018-07-21T20:31:09.048Z,20.60
2018-07-21T20:33:37.720Z,20.50
2018-07-21T20:36:06.348Z,20.50
2018-07-21T20:38:35.018Z,20.50
2018-07-21T20:41:03.684Z,20.50
2018-07-21T20:43:32.611Z,20.40
2018-07-21T20:46:01.177Z,20.30
2018-07-21T20:48:30.135Z,20.30
2018-07-21T20:50:58.900Z,20.20
2018-07-21T20:53:27.636Z,20.20
2018-07-21T20:55:56.343Z,20.20
2018-07-21T20:58:25.211Z,20.20
2018-07-21T21:00:53.954Z,20.20
2018-07-21T21:03:22.682Z,20.10
2018-07-21T21:05:51.433Z,20.00
2018-07-21T21:08:20.172Z,19.90
2018-07-21T21:10:48.872Z,19.80
2018-07-21T21:13:17.945Z,19.70
2018-07-21T21:15:46.704Z,19.70
2018-07-21T21:18:15.865Z,19.60
2018-07-21T21:20:44.580Z,19.60
2018-07-21T21:25:41.538Z,19.50
2018-07-21T21:28:10.483Z,19.50
2018-07-21T21:30:39.226Z,19.40
2018-07-21T21:33:08.218Z,19.30
2018-07-21T21:35:37.024Z,19.20
2018-07-21T21:38:05.930Z,19.10
2018-07-21T21:40:34.612Z,19.10
2018-07-21T21:43:03.410Z,19.00
2018-07-21T21:45:32.483Z,18.90
2018-07-21T21:48:01.373Z,18.90
2018-07-21T21:50:30.226Z,18.80
2018-07-21T21:52:59.006Z,18.80
2018-07-21T21:55:27.791Z,18.70
2018-07-21T21:57:56.716Z,18.60
2018-07-21T22:00:26.129Z,18.60
2018-07-21T22:02:54.645Z,18.60
2018-07-21T22:05:23.455Z,18.60
2018-07-21T22:07:52.380Z,18.60
2018-07-21T22:10:21.085Z,18.50
2018-07-21T22:12:49.596Z,18.40
2018-07-21T22:15:21.436Z,18.40
2018-07-21T22:17:50.881Z,18.40
2018-07-21T22:20:19.521Z,18.30
2018-07-21T22:22:48.065Z,18.30
2018-07-21T22:27:45.241Z,18.20
2018-07-21T22:30:18.855Z,18.20
2018-07-21T22:32:47.610Z,18.30
2018-07-21T22:35:16.741Z,18.30
2018-07-21T22:37:45.289Z,18.20
2018-07-21T22:40:13.893Z,18.20
2018-07-21T22:42:42.932Z,18.30
2018-07-21T22:45:11.640Z,18.40
2018-07-21T22:47:40.547Z,18.40
2018-07-21T22:50:09.650Z,18.30
2018-07-21T22:52:38.228Z,18.30
2018-07-21T22:55:07.086Z,18.30
2018-07-21T22:57:35.670Z,18.20
2018-07-21T23:00:06.078Z,18.30
2018-07-21T23:02:34.690Z,19.40
2018-07-21T23:05:03.439Z,18.40
2018-07-21T23:07:32.079Z,18.50
2018-07-21T23:10:00.604Z,18.50
2018-07-21T23:12:29.383Z,18.40
2018-07-21T23:14:58.108Z,18.40
2018-07-21T23:17:26.747Z,18.30
2018-07-21T23:19:55.296Z,18.20
2018-07-21T23:22:23.865Z,18.10
2018-07-21T23:24:52.587Z,18.10
2018-07-21T23:27:21.332Z,18.00
2018-07-21T23:29:50.035Z,17.80
2018-07-21T23:32:18.532Z,17.80
2018-07-21T23:34:47.175Z,17.70
2018-07-21T23:37:15.952Z,17.70
2018-07-21T23:39:44.869Z,17.60
2018-07-21T23:42:14.018Z,17.50
2018-07-21T23:44:42.743Z,17.50
2018-07-21T23:47:11.576Z,17.40
2018-07-21T23:49:40.231Z,17.40
2018-07-21T23:52:08.835Z,17.40
2018-07-21T23:54:37.664Z,17.30
2018-07-21T23:57:06.480Z,17.30
2018-07-21T23:59:34.975Z,17.30
